Terminal Aerodrome Forecast
Issued by NWS Salt Lake City, UT

Home | Current Version | Previous Version | Text Only | Print | Product List | Glossary On
Versions: 1 2 3 4 5 6 7 8 9 10 11 12 13 14 15 16 17 18 19 20 21 22 23 24 25 26 27 28 29 30 31 32 33 34 35 36 37 38 39 40 41 42 43 44 45 46 47 48 49 50
626
FTUS45 KSLC 181740
TAFSLC
TAF
KSLC 181740Z 1818/1924 31004KT 5SM HZ SCT200
     FM190300 16007KT 6SM BR SCT100 BKN200
     FM191100 17008KT P6SM VCSH SCT050 BKN090
     FM191500 17008KT 2SM -SHSN SCT010 BKN025=

USA.gov is the U.S. government's official web portal to all federal, state and local government web resources and services.